Time;durP1;ratioP1;P1;durP2;ratioP2;P2;SDS_P1;SDS_P2;PMS_P1;PMS_P2;Temp;Humidity;BMP_temperature;BMP_pressure;BME280_temperature;BME280_humidity;BME280_pressure;Samples;Min_cycle;Max_cycle;Signal;HPM_P1;HPM_P2
2021/06/05 00:02:16;;;;;;;9.20;8.50;;;16.60;99.90;;;;;;5134786;27;20441;-79
2021/06/05 00:04:42;;;;;;;9.37;8.57;;;16.60;99.90;;;;;;5134828;27;20543;-78
2021/06/05 00:07:08;;;;;;;9.63;8.80;;;16.60;99.90;;;;;;5134696;27;20448;-78
2021/06/05 00:09:34;;;;;;;9.43;8.73;;;16.60;99.90;;;;;;5134563;27;20870;-78
2021/06/05 00:12:00;;;;;;;10.10;9.20;;;16.50;99.90;;;;;;5134284;27;20978;-78
2021/06/05 00:14:27;;;;;;;10.37;9.47;;;16.50;99.90;;;;;;5134451;27;20575;-78
2021/06/05 00:16:53;;;;;;;8.90;8.20;;;16.50;99.90;;;;;;5134493;27;20531;-78
2021/06/05 00:19:20;;;;;;;9.37;8.53;;;16.50;99.90;;;;;;5134599;27;20444;-79
2021/06/05 00:21:48;;;;;;;8.27;7.60;;;16.40;99.90;;;;;;5134102;27;20472;-78
2021/06/05 00:24:17;;;;;;;9.13;8.33;;;16.50;99.90;;;;;;5134342;27;20445;-78
2021/06/05 00:26:43;;;;;;;9.67;8.90;;;16.50;99.90;;;;;;5134191;27;20956;-78
2021/06/05 00:29:09;;;;;;;11.73;8.80;;;16.50;99.90;;;;;;5134539;27;20480;-78
2021/06/05 00:31:36;;;;;;;12.70;8.43;;;16.40;99.90;;;;;;5134187;27;20483;-78
2021/06/05 00:34:03;;;;;;;8.93;8.03;;;16.40;99.90;;;;;;5134152;27;20515;-78
2021/06/05 00:36:29;;;;;;;8.33;7.63;;;16.40;99.90;;;;;;5133961;27;20536;-78
2021/06/05 00:38:56;;;;;;;9.33;8.60;;;16.30;99.90;;;;;;5134386;27;20448;-78
2021/06/05 00:41:24;;;;;;;9.43;8.63;;;16.30;99.90;;;;;;5134088;27;20540;-78
2021/06/05 00:44:00;;;;;;;9.80;8.80;;;16.20;99.90;;;;;;5134062;27;20951;-78
2021/06/05 00:46:28;;;;;;;14.03;12.73;;;16.30;99.90;;;;;;5134062;27;20940;-78
2021/06/05 00:48:57;;;;;;;14.83;13.23;;;16.30;99.90;;;;;;5133888;27;20444;-80
2021/06/05 00:51:30;;;;;;;8.80;8.20;;;16.30;99.90;;;;;;5123827;27;20450;-80
2021/06/05 00:53:58;;;;;;;8.80;8.10;;;16.20;99.90;;;;;;5113609;28;20890;-80
2021/06/05 00:56:24;;;;;;;8.87;8.07;;;16.20;99.90;;;;;;5113501;28;20496;-80
2021/06/05 00:58:51;;;;;;;12.03;9.63;;;16.20;99.90;;;;;;5113510;28;20488;-80
2021/06/05 01:01:21;;;;;;;8.57;7.77;;;16.20;99.90;;;;;;5113320;28;20941;-80
2021/06/05 01:03:47;;;;;;;8.60;8.00;;;16.10;99.90;;;;;;5113271;28;20453;-81
2021/06/05 01:06:17;;;;;;;8.70;7.90;;;16.20;99.90;;;;;;5113387;28;20874;-81
2021/06/05 01:08:50;;;;;;;8.70;8.00;;;16.10;99.90;;;;;;5112944;28;20442;-81
2021/06/05 01:11:22;;;;;;;9.47;8.67;;;16.10;99.90;;;;;;5113421;28;20869;-81
2021/06/05 01:13:53;;;;;;;8.37;7.67;;;16.10;99.90;;;;;;5112972;28;20572;-81
2021/06/05 01:16:23;;;;;;;8.20;7.47;;;16.10;99.90;;;;;;5113205;28;20481;-79
2021/06/05 01:18:54;;;;;;;9.60;8.80;;;16.10;99.90;;;;;;5113368;28;20477;-79
2021/06/05 01:21:36;;;;;;;8.53;7.77;;;16.10;99.90;;;;;;5113229;28;20449;-79
2021/06/05 01:24:12;;;;;;;8.43;7.73;;;16.10;99.90;;;;;;5113007;28;21168;-78
2021/06/05 01:26:43;;;;;;;8.03;7.53;;;16.10;99.90;;;;;;5119645;28;20535;-78
2021/06/05 01:29:16;;;;;;;8.83;8.00;;;16.00;99.90;;;;;;5133713;28;20525;-78
2021/06/05 01:31:45;;;;;;;9.53;8.63;;;16.00;99.90;;;;;;5133551;28;20532;-78
2021/06/05 01:34:13;;;;;;;8.57;7.87;;;16.00;99.90;;;;;;5133552;28;20479;-79
2021/06/05 01:36:44;;;;;;;8.60;7.90;;;16.00;99.90;;;;;;5133350;28;20487;-79
2021/06/05 01:39:14;;;;;;;9.63;8.73;;;16.00;99.90;;;;;;5133394;28;20449;-79
2021/06/05 01:41:43;;;;;;;8.60;7.90;;;16.00;99.90;;;;;;5133649;28;20448;-78
2021/06/05 01:44:11;;;;;;;9.30;8.53;;;15.90;99.90;;;;;;5133394;28;20532;-79
2021/06/05 01:46:41;;;;;;;8.20;7.50;;;15.90;99.90;;;;;;5133320;28;20959;-79
2021/06/05 01:49:08;;;;;;;8.53;7.83;;;15.90;99.90;;;;;;5133274;28;20613;-79
2021/06/05 01:51:38;;;;;;;9.43;8.70;;;15.90;99.90;;;;;;5133113;28;20528;-79
2021/06/05 01:54:08;;;;;;;8.43;7.83;;;15.90;99.90;;;;;;5133342;28;20571;-80
2021/06/05 01:56:38;;;;;;;9.63;8.73;;;15.90;99.90;;;;;;5133470;28;20951;-77
2021/06/05 01:59:07;;;;;;;8.70;7.87;;;15.80;99.90;;;;;;5133302;28;20486;-77
2021/06/05 02:01:33;;;;;;;8.37;7.67;;;15.80;99.90;;;;;;5133233;28;20472;-77
2021/06/05 02:04:00;;;;;;;9.47;8.60;;;15.80;99.90;;;;;;5132971;28;21015;-80
2021/06/05 02:06:28;;;;;;;10.80;9.20;;;15.70;99.90;;;;;;5133206;27;20483;-79
2021/06/05 02:08:54;;;;;;;9.93;9.13;;;15.70;99.90;;;;;;5133213;28;20528;-80
2021/06/05 02:11:24;;;;;;;10.63;9.63;;;15.70;99.90;;;;;;5133283;27;20450;-80
2021/06/05 02:13:55;;;;;;;9.50;8.47;;;15.60;99.90;;;;;;5132717;28;20593;-80
2021/06/05 02:16:26;;;;;;;10.60;9.60;;;15.60;99.90;;;;;;5133075;28;20523;-80
2021/06/05 02:18:57;;;;;;;10.47;9.57;;;15.60;99.90;;;;;;5133272;28;20517;-79
2021/06/05 02:21:27;;;;;;;9.00;8.30;;;15.60;99.90;;;;;;5135936;27;20529;-79
2021/06/05 02:23:58;;;;;;;9.60;8.90;;;15.50;99.90;;;;;;5137051;27;20517;-79
2021/06/05 02:26:24;;;;;;;9.30;8.50;;;15.50;99.90;;;;;;5136794;27;20498;-79
2021/06/05 02:28:54;;;;;;;9.37;8.57;;;15.40;99.90;;;;;;5136751;27;20488;-78
2021/06/05 02:31:23;;;;;;;9.87;9.10;;;15.40;99.90;;;;;;5136708;27;20539;-78
2021/06/05 02:33:49;;;;;;;9.20;8.40;;;15.30;99.90;;;;;;5136735;27;20500;-78
2021/06/05 02:36:17;;;;;;;11.63;10.67;;;15.30;99.90;;;;;;5136760;27;20642;-78
2021/06/05 02:38:46;;;;;;;10.10;9.10;;;15.30;99.90;;;;;;5136589;27;20445;-78
2021/06/05 02:41:14;;;;;;;11.47;8.93;;;15.30;99.90;;;;;;5136603;27;20445;-78
2021/06/05 02:43:43;;;;;;;9.07;8.27;;;15.30;99.90;;;;;;5136395;27;20995;-78
2021/06/05 02:46:13;;;;;;;10.13;9.23;;;15.30;99.90;;;;;;5136676;27;20449;-78
2021/06/05 02:48:47;;;;;;;10.87;9.77;;;15.30;99.90;;;;;;5136827;27;20947;-78
2021/06/05 02:51:15;;;;;;;9.03;8.30;;;15.30;99.90;;;;;;5130688;27;20545;-78
2021/06/05 02:53:41;;;;;;;9.50;8.70;;;15.30;99.90;;;;;;5115514;28;20996;-78
2021/06/05 02:56:08;;;;;;;9.07;8.37;;;15.30;99.90;;;;;;5115611;28;20477;-80
2021/06/05 02:58:34;;;;;;;9.17;8.37;;;15.30;99.90;;;;;;5115824;28;20486;-80
2021/06/05 03:01:01;;;;;;;9.30;8.40;;;15.30;99.90;;;;;;5115698;28;20590;-80
2021/06/05 03:03:27;;;;;;;9.53;8.73;;;15.30;99.90;;;;;;5115655;28;20507;-80
2021/06/05 03:05:54;;;;;;;9.50;8.70;;;15.40;99.90;;;;;;5115559;28;20545;-78
2021/06/05 03:08:24;;;;;;;11.63;10.53;;;15.40;99.90;;;;;;5115458;28;20540;-78
2021/06/05 03:10:51;;;;;;;9.50;8.80;;;15.40;99.90;;;;;;5115386;28;20663;-78
2021/06/05 03:13:19;;;;;;;9.63;8.73;;;15.40;99.90;;;;;;5115047;28;20883;-79
2021/06/05 03:15:46;;;;;;;9.57;8.73;;;15.40;99.90;;;;;;5115449;28;20799;-78
2021/06/05 03:18:12;;;;;;;10.43;9.50;;;15.40;99.90;;;;;;5115292;28;21202;-79
2021/06/05 03:20:41;;;;;;;9.73;8.80;;;15.40;99.90;;;;;;5115294;28;20474;-79
2021/06/05 03:23:11;;;;;;;9.87;9.07;;;15.50;99.90;;;;;;5114987;28;20486;-79
2021/06/05 03:25:37;;;;;;;10.43;8.40;;;15.50;99.90;;;;;;5115291;28;20480;-80
2021/06/05 03:28:04;;;;;;;9.57;8.87;;;15.50;99.90;;;;;;5134028;27;20501;-79
2021/06/05 03:30:31;;;;;;;12.53;8.90;;;15.50;99.90;;;;;;5150979;27;20479;-79
2021/06/05 03:32:57;;;;;;;8.50;7.90;;;15.60;99.90;;;;;;5156275;27;20999;-79
2021/06/05 03:35:23;;;;;;;8.90;8.20;;;15.60;99.90;;;;;;5155916;27;21053;-79
2021/06/05 03:37:50;;;;;;;9.60;8.77;;;15.60;99.90;;;;;;5156001;27;21026;-77
2021/06/05 03:40:22;;;;;;;9.53;8.83;;;15.70;99.90;;;;;;5156291;27;20478;-77
2021/06/05 03:42:48;;;;;;;9.27;8.57;;;15.70;99.90;;;;;;5156242;27;20535;-78
2021/06/05 03:45:15;;;;;;;8.67;8.03;;;15.70;99.90;;;;;;5156110;27;20475;-78
2021/06/05 03:47:42;;;;;;;9.70;8.90;;;15.80;99.90;;;;;;5156037;27;20519;-77
2021/06/05 03:50:11;;;;;;;9.00;8.20;;;15.90;99.90;;;;;;5155813;27;20935;-77
2021/06/05 03:52:37;;;;;;;9.17;8.37;;;15.90;99.90;;;;;;5155751;27;20500;-78
2021/06/05 03:55:04;;;;;;;8.33;7.63;;;15.90;99.90;;;;;;5155735;27;21069;-77
2021/06/05 03:57:33;;;;;;;9.67;8.27;;;16.00;99.90;;;;;;5155919;27;20508;-78
2021/06/05 03:59:59;;;;;;;8.93;8.23;;;16.10;99.90;;;;;;5155630;27;20454;-78
2021/06/05 04:02:25;;;;;;;8.67;7.97;;;16.10;99.90;;;;;;5155789;27;20448;-78
2021/06/05 04:04:52;;;;;;;9.07;8.27;;;16.20;99.90;;;;;;5155437;27;20538;-78
2021/06/05 04:07:19;;;;;;;7.83;7.20;;;16.20;99.90;;;;;;5155630;27;20536;-78
2021/06/05 04:09:46;;;;;;;8.47;7.87;;;16.20;99.90;;;;;;5155510;27;20444;-79
2021/06/05 04:12:13;;;;;;;7.87;7.27;;;16.40;99.90;;;;;;5155378;27;20511;-79
2021/06/05 04:14:42;;;;;;;8.40;7.60;;;16.40;99.90;;;;;;5155381;27;20480;-78
2021/06/05 04:17:08;;;;;;;8.30;7.70;;;16.50;99.90;;;;;;5155247;27;20479;-78
2021/06/05 04:19:36;;;;;;;8.67;7.87;;;16.50;99.90;;;;;;5155178;27;20994;-78
2021/06/05 04:22:03;;;;;;;8.50;7.80;;;16.60;99.90;;;;;;5155353;27;20802;-78
2021/06/05 04:24:29;;;;;;;8.30;7.60;;;16.70;99.90;;;;;;5155152;27;20997;-78
2021/06/05 04:26:55;;;;;;;7.80;7.20;;;16.70;99.90;;;;;;5146030;27;20476;-78
2021/06/05 04:29:21;;;;;;;8.70;7.90;;;16.80;99.90;;;;;;5134547;27;20535;-77
2021/06/05 04:31:49;;;;;;;8.37;7.60;;;16.90;99.90;;;;;;5134228;27;20520;-77
2021/06/05 04:34:15;;;;;;;7.80;7.20;;;16.90;99.90;;;;;;5134314;27;20563;-77
2021/06/05 04:36:41;;;;;;;7.97;7.37;;;17.00;99.90;;;;;;5134132;27;20536;-78
2021/06/05 04:39:07;;;;;;;8.47;7.77;;;17.10;99.90;;;;;;5134296;27;20476;-78
2021/06/05 04:41:34;;;;;;;8.03;7.33;;;17.20;99.90;;;;;;5134235;27;20506;-78
2021/06/05 04:44:00;;;;;;;7.80;7.10;;;17.40;99.90;;;;;;5133668;27;20555;-79
2021/06/05 04:46:26;;;;;;;7.57;6.83;;;17.50;99.90;;;;;;5133863;27;20951;-79
2021/06/05 04:48:54;;;;;;;8.03;7.00;;;17.60;99.90;;;;;;5134205;27;20535;-78
2021/06/05 04:51:22;;;;;;;7.33;6.73;;;17.60;99.90;;;;;;5133993;27;20589;-80
2021/06/05 04:53:49;;;;;;;7.10;6.60;;;17.70;99.90;;;;;;5113004;28;20525;-80
2021/06/05 04:56:16;;;;;;;6.80;6.40;;;17.80;99.90;;;;;;5113470;28;20484;-79
2021/06/05 04:58:42;;;;;;;7.00;6.40;;;17.90;99.90;;;;;;5113360;28;20457;-79
2021/06/05 05:01:11;;;;;;;6.30;5.80;;;18.00;99.90;;;;;;5113121;28;20481;-78
2021/06/05 05:03:37;;;;;;;6.07;5.67;;;18.10;99.90;;;;;;5113591;28;20481;-78
2021/06/05 05:06:05;;;;;;;6.87;6.27;;;18.20;99.90;;;;;;5113512;28;20461;-78
2021/06/05 05:08:32;;;;;;;6.63;6.13;;;18.30;99.90;;;;;;5113536;28;20991;-78
2021/06/05 05:10:59;;;;;;;6.87;6.07;;;18.40;99.90;;;;;;5113156;28;20456;-78
2021/06/05 05:13:28;;;;;;;6.10;5.70;;;18.50;99.90;;;;;;5112911;28;20492;-78
2021/06/05 05:15:55;;;;;;;6.50;6.00;;;18.60;99.90;;;;;;5113149;28;20564;-79
2021/06/05 05:18:22;;;;;;;5.80;5.40;;;18.70;99.90;;;;;;5113138;28;20482;-79
2021/06/05 05:20:49;;;;;;;6.70;6.20;;;18.70;99.90;;;;;;5113143;28;20855;-78
2021/06/05 05:23:19;;;;;;;6.23;5.70;;;18.80;99.90;;;;;;5113094;28;20490;-78
2021/06/05 05:25:45;;;;;;;5.37;4.97;;;18.90;99.90;;;;;;5113023;28;20461;-78
2021/06/05 05:28:14;;;;;;;5.63;5.23;;;19.00;99.90;;;;;;5132801;28;20524;-78
2021/06/05 05:30:44;;;;;;;6.23;5.63;;;19.20;99.90;;;;;;5133690;27;20532;-78
2021/06/05 05:33:11;;;;;;;5.50;5.10;;;19.20;99.90;;;;;;5134074;28;20444;-78
2021/06/05 05:35:38;;;;;;;5.37;4.83;;;19.30;99.90;;;;;;5133417;28;20479;-78
2021/06/05 05:38:06;;;;;;;5.50;5.10;;;19.50;99.90;;;;;;5133536;28;20485;-78
2021/06/05 05:40:37;;;;;;;5.77;5.27;;;19.60;99.90;;;;;;5133424;28;20544;-78
2021/06/05 05:43:03;;;;;;;5.03;4.60;;;19.80;99.90;;;;;;5133875;28;20844;-78
2021/06/05 05:45:30;;;;;;;5.27;4.87;;;19.90;99.90;;;;;;5133505;28;20480;-78
2021/06/05 05:47:57;;;;;;;5.63;5.23;;;20.10;99.90;;;;;;5133607;28;20910;-77
2021/06/05 05:50:24;;;;;;;5.30;4.90;;;20.30;99.90;;;;;;5133479;28;20548;-77
2021/06/05 05:52:50;;;;;;;5.50;5.10;;;20.60;99.90;;;;;;5133278;28;20532;-79
2021/06/05 05:55:19;;;;;;;4.97;4.57;;;20.90;99.90;;;;;;5132276;27;20895;-78
2021/06/05 05:57:48;;;;;;;6.27;4.90;;;21.20;99.90;;;;;;5136322;27;20581;-78
2021/06/05 06:00:20;;;;;;;5.20;4.80;;;21.60;99.90;;;;;;5136781;27;20864;-79
2021/06/05 06:02:46;;;;;;;4.90;4.50;;;22.10;99.90;;;;;;5138047;27;20450;-78
2021/06/05 06:05:12;;;;;;;4.77;4.40;;;22.60;99.90;;;;;;5146506;27;20448;-78
2021/06/05 06:07:39;;;;;;;5.30;5.00;;;23.10;99.90;;;;;;5142705;27;20476;-80
2021/06/05 06:10:06;;;;;;;4.60;4.20;;;23.60;99.90;;;;;;5136273;27;20476;-80
2021/06/05 06:12:32;;;;;;;5.33;4.93;;;24.00;99.90;;;;;;5136496;27;20477;-80
2021/06/05 06:15:00;;;;;;;3.63;3.43;;;24.40;99.90;;;;;;5136825;27;20483;-80
2021/06/05 06:17:26;;;;;;;5.63;4.00;;;24.80;99.90;;;;;;5136984;27;21007;-79
2021/06/05 06:19:52;;;;;;;4.80;4.40;;;25.00;99.90;;;;;;5136843;27;20448;-80
2021/06/05 06:22:18;;;;;;;6.77;4.80;;;25.30;99.90;;;;;;5136566;27;20569;-80
2021/06/05 06:24:44;;;;;;;4.63;4.33;;;25.50;99.90;;;;;;5136298;27;20476;-80
2021/06/05 06:27:10;;;;;;;5.67;5.23;;;25.80;99.90;;;;;;5136686;27;20472;-80
2021/06/05 06:29:39;;;;;;;7.90;7.10;;;26.10;99.90;;;;;;5136342;27;20476;-79
2021/06/05 06:32:08;;;;;;;4.47;4.17;;;26.20;99.90;;;;;;5136199;27;20444;-79
2021/06/05 06:34:34;;;;;;;4.17;3.97;;;26.50;99.90;;;;;;5136031;27;20898;-79
2021/06/05 06:37:04;;;;;;;7.03;6.43;;;26.70;99.90;;;;;;5133170;27;20445;-78
2021/06/05 06:39:30;;;;;;;5.97;5.27;;;27.00;99.90;;;;;;5136534;27;20476;-78
2021/06/05 06:41:57;;;;;;;4.50;4.20;;;27.10;99.90;;;;;;5136280;27;20494;-79
2021/06/05 06:44:23;;;;;;;4.60;4.20;;;27.30;99.90;;;;;;5135930;27;20546;-79
2021/06/05 06:46:50;;;;;;;3.70;3.50;;;27.30;99.90;;;;;;5139940;27;20473;-79
2021/06/05 06:49:20;;;;;;;4.43;4.13;;;27.30;99.90;;;;;;5142759;27;20896;-78
2021/06/05 06:51:46;;;;;;;4.60;4.20;;;27.30;99.90;;;;;;5136029;27;20856;-80
2021/06/05 06:54:13;;;;;;;5.00;4.60;;;27.40;99.90;;;;;;5139614;27;20496;-79
2021/06/05 06:56:40;;;;;;;4.73;4.43;;;27.30;99.90;;;;;;5135980;27;20440;-79
2021/06/05 06:59:07;;;;;;;4.00;3.80;;;27.30;99.90;;;;;;5150388;27;20469;-79
2021/06/05 07:01:34;;;;;;;4.20;3.90;;;27.50;99.90;;;;;;5135669;27;20487;-79
2021/06/05 07:04:00;;;;;;;4.20;3.90;;;27.60;99.90;;;;;;5142612;27;20433;-79
2021/06/05 07:06:28;;;;;;;4.43;4.13;;;27.70;99.90;;;;;;5137610;27;20472;-80
2021/06/05 07:08:55;;;;;;;7.37;6.77;;;27.80;99.90;;;;;;5137504;27;20524;-79
2021/06/05 07:11:24;;;;;;;4.70;4.40;;;27.80;99.90;;;;;;5138283;27;20490;-80
2021/06/05 07:13:50;;;;;;;4.60;4.30;;;27.80;99.90;;;;;;5139862;27;20459;-79
2021/06/05 07:16:19;;;;;;;3.83;3.63;;;27.90;99.90;;;;;;5141580;27;20952;-79
2021/06/05 07:18:45;;;;;;;4.43;4.23;;;27.90;99.90;;;;;;5136853;27;20480;-78
2021/06/05 07:21:13;;;;;;;4.13;3.83;;;28.00;99.90;;;;;;5134906;27;20448;-81
2021/06/05 07:23:42;;;;;;;4.23;3.77;;;27.90;99.90;;;;;;5135372;27;20452;-92
2021/06/05 07:26:11;;;;;;;4.70;4.40;;;27.90;99.90;;;;;;5136011;27;20455;-93
2021/06/05 07:28:41;;;;;;;6.13;5.53;;;28.00;99.90;;;;;;5136369;27;20488;-93
2021/06/05 07:31:09;;;;;;;4.50;4.20;;;27.90;99.90;;;;;;5135821;27;20991;-95
2021/06/05 07:33:36;;;;;;;3.73;3.53;;;27.80;99.90;;;;;;5136686;27;20452;-93
2021/06/05 07:36:04;;;;;;;4.30;4.00;;;27.60;99.90;;;;;;5135050;27;20476;-93
2021/06/05 07:38:31;;;;;;;3.90;3.70;;;27.50;99.90;;;;;;5135125;27;20468;-93
2021/06/05 07:40:59;;;;;;;3.87;3.67;;;27.60;99.90;;;;;;5135635;27;20527;-90
2021/06/05 07:43:27;;;;;;;4.43;4.00;;;27.70;99.90;;;;;;5135175;27;20456;-92
2021/06/05 07:45:55;;;;;;;3.97;3.67;;;27.90;99.90;;;;;;5135981;27;20456;-93
2021/06/05 07:48:21;;;;;;;6.30;3.90;;;28.10;99.90;;;;;;5135286;27;20480;-92
2021/06/05 07:50:48;;;;;;;4.70;4.30;;;28.20;99.90;;;;;;5132434;27;20473;-91
2021/06/05 07:53:14;;;;;;;4.83;3.80;;;28.20;99.90;;;;;;5135217;27;20536;-91
2021/06/05 07:55:42;;;;;;;3.80;3.60;;;28.20;99.90;;;;;;5136254;27;20503;-87
2021/06/05 07:58:10;;;;;;;3.90;3.70;;;28.30;99.90;;;;;;5135575;27;20445;-92
2021/06/05 08:00:37;;;;;;;4.03;3.47;;;28.30;99.90;;;;;;5121796;27;20449;-89
2021/06/05 08:03:05;;;;;;;4.13;3.73;;;28.40;99.90;;;;;;5134632;27;20808;-91
2021/06/05 08:05:31;;;;;;;3.33;3.13;;;28.40;99.90;;;;;;5134830;27;20445;-89
2021/06/05 08:07:57;;;;;;;3.80;3.60;;;28.50;99.20;;;;;;5134494;27;20452;-95
2021/06/05 08:10:24;;;;;;;4.70;3.23;;;28.40;99.00;;;;;;5136008;27;20516;-88
2021/06/05 08:12:50;;;;;;;2.93;2.73;;;28.40;98.70;;;;;;5136538;27;20479;-94
2021/06/05 08:15:22;;;;;;;4.60;4.30;;;28.40;99.40;;;;;;5136922;27;20567;-95
2021/06/05 08:17:48;;;;;;;3.40;3.20;;;28.50;99.20;;;;;;5137369;27;20991;-90
2021/06/05 08:20:18;;;;;;;2.77;2.67;;;28.50;97.80;;;;;;5135388;27;20445;-88
2021/06/05 08:22:44;;;;;;;3.40;3.10;;;28.60;98.00;;;;;;5134090;27;20884;-84
2021/06/05 08:25:11;;;;;;;3.67;2.90;;;28.50;97.50;;;;;;5133519;27;20441;-83
2021/06/05 08:27:38;;;;;;;5.20;4.80;;;28.50;97.40;;;;;;5133362;27;20473;-83
2021/06/05 08:30:07;;;;;;;5.33;4.93;;;28.40;96.90;;;;;;5131151;27;20527;-82
2021/06/05 08:32:34;;;;;;;3.40;3.10;;;28.30;97.10;;;;;;5133706;27;20536;-85
2021/06/05 08:35:00;;;;;;;3.33;3.00;;;28.30;96.50;;;;;;5135301;27;20530;-81
2021/06/05 08:37:26;;;;;;;3.03;2.73;;;28.20;96.50;;;;;;5133492;27;20872;-81
2021/06/05 08:39:53;;;;;;;3.27;3.00;;;28.10;96.50;;;;;;5133592;27;20441;-81
2021/06/05 08:42:24;;;;;;;3.70;3.40;;;27.90;96.90;;;;;;5133619;27;20645;-81
2021/06/05 08:44:52;;;;;;;2.43;2.33;;;27.90;96.10;;;;;;5133661;27;20444;-80
2021/06/05 08:47:21;;;;;;;3.20;3.00;;;27.80;97.10;;;;;;5133778;27;20537;-79
2021/06/05 08:49:49;;;;;;;3.07;2.93;;;27.70;97.20;;;;;;5133750;27;20528;-79
2021/06/05 08:52:28;;;;;;;3.00;2.80;;;27.60;97.70;;;;;;5133509;27;20480;-79
2021/06/05 08:55:00;;;;;;;4.07;3.77;;;27.50;97.80;;;;;;5131322;27;20493;-78
2021/06/05 08:57:33;;;;;;;3.03;2.83;;;27.40;97.90;;;;;;5131199;27;20529;-81
2021/06/05 09:00:09;;;;;;;3.63;3.33;;;27.30;98.50;;;;;;5132610;27;20472;-81
2021/06/05 09:02:37;;;;;;;3.47;3.20;;;27.20;98.60;;;;;;5133587;27;20445;-81
2021/06/05 09:05:07;;;;;;;6.33;5.70;;;27.20;98.30;;;;;;5133178;27;20449;-81
2021/06/05 09:07:33;;;;;;;7.30;6.60;;;27.10;98.30;;;;;;5133385;27;20527;-81
2021/06/05 09:10:00;;;;;;;4.00;3.70;;;27.10;97.60;;;;;;5133658;27;20796;-80
2021/06/05 09:12:26;;;;;;;3.17;2.97;;;27.00;97.20;;;;;;5133341;27;20481;-81
2021/06/05 09:14:57;;;;;;;3.37;3.17;;;27.00;97.20;;;;;;5130737;27;21003;-82
2021/06/05 09:17:36;;;;;;;2.93;2.73;;;26.90;97.80;;;;;;5133011;28;20501;-81
2021/06/05 09:20:11;;;;;;;3.87;3.57;;;26.90;97.50;;;;;;5131351;28;20539;-80
2021/06/05 09:22:39;;;;;;;8.50;3.23;;;26.80;97.50;;;;;;5130787;27;22044;-82
2021/06/05 09:25:28;;;;;;;4.20;3.17;;;26.90;98.00;;;;;;5133313;28;20440;-82
2021/06/05 09:28:12;;;;;;;2.80;2.60;;;27.00;98.40;;;;;;5129994;28;20971;-81
2021/06/05 09:30:40;;;;;;;2.97;2.83;;;27.00;98.00;;;;;;5136916;27;20484;-82
2021/06/05 09:33:09;;;;;;;3.30;3.10;;;27.10;98.10;;;;;;5134748;27;20445;-82
2021/06/05 09:35:40;;;;;;;11.50;8.37;;;27.10;97.90;;;;;;5137349;27;20508;-82
2021/06/05 09:38:24;;;;;;;8.70;7.90;;;27.20;97.10;;;;;;5137299;27;20931;-82
2021/06/05 09:41:13;;;;;;;3.50;3.30;;;27.40;97.30;;;;;;5137520;27;20440;-82
2021/06/05 09:43:41;;;;;;;3.40;3.20;;;27.40;98.10;;;;;;5120593;27;20480;-82
2021/06/05 09:46:13;;;;;;;4.93;4.53;;;27.40;97.00;;;;;;5136902;27;21008;-81
2021/06/05 09:48:41;;;;;;;5.63;5.20;;;27.40;96.60;;;;;;5134383;27;20452;-82
2021/06/05 09:51:26;;;;;;;8.33;2.97;;;27.40;96.10;;;;;;5137420;27;20448;-82
2021/06/05 09:54:07;;;;;;;3.33;3.13;;;27.10;95.80;;;;;;5122070;27;20448;-82
2021/06/05 09:56:36;;;;;;;3.70;3.50;;;27.30;96.20;;;;;;5130625;27;20457;-82
2021/06/05 09:59:07;;;;;;;3.17;2.97;;;27.30;96.10;;;;;;5136927;27;20448;-81
2021/06/05 10:01:35;;;;;;;3.60;3.40;;;27.30;96.20;;;;;;5137093;27;20445;-82
2021/06/05 10:04:16;;;;;;;6.80;6.30;;;27.20;96.70;;;;;;5136896;27;20943;-81
2021/06/05 10:06:47;;;;;;;4.13;3.73;;;27.20;96.60;;;;;;5137453;27;20866;-82
2021/06/05 10:09:45;;;;;;;3.43;3.13;;;27.10;97.00;;;;;;5133079;27;20444;-81
2021/06/05 10:12:18;;;;;;;3.10;2.90;;;27.00;96.70;;;;;;5123044;27;20504;-80
2021/06/05 10:15:00;;;;;;;2.90;2.70;;;27.00;96.20;;;;;;5131543;27;20500;-82
2021/06/05 10:17:35;;;;;;;3.37;3.07;;;27.00;96.70;;;;;;5137130;27;20479;-83
2021/06/05 10:20:12;;;;;;;3.60;3.40;;;26.90;96.60;;;;;;5131500;27;20856;-79
2021/06/05 10:22:40;;;;;;;3.37;3.00;;;26.90;96.40;;;;;;5134795;27;20447;-77
2021/06/05 10:25:19;;;;;;;4.07;2.50;;;26.80;95.80;;;;;;5135128;27;20452;-77
2021/06/05 10:27:46;;;;;;;3.50;3.20;;;26.70;95.90;;;;;;5136498;27;20468;-77
2021/06/05 10:30:28;;;;;;;3.40;3.20;;;26.70;95.90;;;;;;5136082;27;20497;-77
2021/06/05 10:32:57;;;;;;;3.53;3.33;;;26.70;96.80;;;;;;5137020;27;20849;-77
2021/06/05 10:35:29;;;;;;;3.27;3.07;;;26.60;97.00;;;;;;5136818;27;20948;-78
2021/06/05 10:38:02;;;;;;;3.30;3.10;;;26.60;96.60;;;;;;5136742;27;20480;-77
2021/06/05 10:40:28;;;;;;;3.43;3.10;;;26.60;96.30;;;;;;5136009;27;20460;-77
2021/06/05 10:42:55;;;;;;;3.23;3.03;;;26.50;96.70;;;;;;5136463;27;20597;-77
2021/06/05 10:45:27;;;;;;;3.53;3.23;;;26.50;96.80;;;;;;5136635;27;20487;-77
2021/06/05 10:47:58;;;;;;;3.50;3.30;;;26.50;97.60;;;;;;5136750;27;20920;-77
2021/06/05 10:50:28;;;;;;;4.53;4.10;;;26.50;97.50;;;;;;5136342;27;20479;-77
2021/06/05 10:52:59;;;;;;;3.60;3.23;;;26.40;96.90;;;;;;5134608;27;20448;-79
2021/06/05 10:55:30;;;;;;;5.00;4.60;;;26.40;97.20;;;;;;5136035;27;20460;-79
2021/06/05 10:58:25;;;;;;;4.03;3.70;;;26.30;97.70;;;;;;5135413;27;20502;-79
2021/06/05 11:00:53;;;;;;;3.80;3.40;;;26.30;97.70;;;;;;5132323;27;20505;-79
2021/06/05 11:03:56;;;;;;;3.03;2.80;;;26.30;97.90;;;;;;5135753;27;21002;-79
2021/06/05 11:06:29;;;;;;;5.63;5.17;;;26.30;98.00;;;;;;5136218;27;20456;-79
2021/06/05 11:08:59;;;;;;;6.60;5.70;;;26.30;97.70;;;;;;5136091;27;21027;-79
2021/06/05 11:11:38;;;;;;;5.77;4.53;;;26.30;98.00;;;;;;5136044;27;20476;-79
2021/06/05 11:14:27;;;;;;;4.43;4.03;;;26.20;97.80;;;;;;5135817;27;20473;-79
2021/06/05 11:17:10;;;;;;;5.00;3.13;;;26.20;98.10;;;;;;5135819;27;20590;-79
2021/06/05 11:19:40;;;;;;;3.53;3.17;;;26.20;98.50;;;;;;5135887;27;20541;-79
2021/06/05 11:22:08;;;;;;;3.60;3.40;;;26.20;98.20;;;;;;5135870;27;20890;-79
2021/06/05 11:24:36;;;;;;;3.30;3.10;;;26.20;97.00;;;;;;5135729;27;20502;-79
2021/06/05 11:27:05;;;;;;;3.60;3.40;;;26.10;97.10;;;;;;5135883;27;20867;-79
2021/06/05 11:29:54;;;;;;;3.97;3.67;;;26.10;97.90;;;;;;5135926;27;20451;-79
2021/06/05 11:32:53;;;;;;;3.70;3.40;;;26.10;98.00;;;;;;5135798;27;20456;-79
2021/06/05 11:35:42;;;;;;;3.90;3.60;;;26.20;98.10;;;;;;5135713;27;20512;-79
2021/06/05 11:38:11;;;;;;;3.30;3.10;;;26.20;98.70;;;;;;5135743;27;20451;-79
2021/06/05 11:40:54;;;;;;;4.10;3.67;;;26.30;97.70;;;;;;5135414;27;20541;-79
2021/06/05 11:43:38;;;;;;;3.60;3.33;;;26.30;97.20;;;;;;5135390;27;21008;-79
2021/06/05 11:46:09;;;;;;;3.40;3.10;;;26.30;97.50;;;;;;5134445;27;20480;-79
2021/06/05 11:48:47;;;;;;;3.70;3.50;;;26.30;97.60;;;;;;5135457;27;20445;-79
2021/06/05 11:51:32;;;;;;;4.10;3.63;;;26.30;97.00;;;;;;5135194;27;20448;-79
2021/06/05 11:54:02;;;;;;;3.30;3.10;;;26.30;97.00;;;;;;5134258;27;21172;-79
2021/06/05 11:56:32;;;;;;;3.87;3.57;;;26.30;96.50;;;;;;5134248;27;20571;-79
2021/06/05 11:59:10;;;;;;;4.33;3.93;;;26.30;96.30;;;;;;5134809;27;20449;-79
2021/06/05 12:01:36;;;;;;;3.57;3.27;;;26.20;96.20;;;;;;5133991;27;20482;-79
2021/06/05 12:04:10;;;;;;;3.20;3.00;;;26.20;96.70;;;;;;5134783;27;20540;-79
2021/06/05 12:06:39;;;;;;;3.40;3.20;;;26.20;95.80;;;;;;5135138;27;21008;-79
2021/06/05 12:09:14;;;;;;;3.17;2.97;;;26.30;96.20;;;;;;5135134;27;20452;-79
2021/06/05 12:11:46;;;;;;;3.47;3.20;;;26.30;95.60;;;;;;5134720;27;20451;-79
2021/06/05 12:14:18;;;;;;;4.70;4.40;;;26.30;95.80;;;;;;5134966;27;20452;-79
2021/06/05 12:16:50;;;;;;;4.67;4.27;;;26.30;95.90;;;;;;5134694;27;20800;-79
2021/06/05 12:19:24;;;;;;;3.30;3.03;;;26.30;95.00;;;;;;5135043;27;20448;-79
2021/06/05 12:21:50;;;;;;;4.23;3.07;;;26.30;95.00;;;;;;5134818;27;21108;-79
2021/06/05 12:24:22;;;;;;;4.07;3.77;;;26.30;94.90;;;;;;5134788;27;20448;-79
2021/06/05 12:26:52;;;;;;;4.60;3.90;;;26.30;94.30;;;;;;5128496;27;20440;-79
2021/06/05 12:29:24;;;;;;;3.33;3.13;;;26.30;94.70;;;;;;5134840;27;20444;-79
2021/06/05 12:31:51;;;;;;;3.80;2.77;;;26.30;94.90;;;;;;5134578;27;20812;-79
2021/06/05 12:34:31;;;;;;;2.63;2.43;;;26.40;94.10;;;;;;5134639;27;20445;-79
2021/06/05 12:37:01;;;;;;;3.03;2.83;;;26.40;91.80;;;;;;5134480;27;20448;-79
2021/06/05 12:39:41;;;;;;;4.67;4.37;;;26.40;92.50;;;;;;5134351;27;20459;-79
2021/06/05 12:42:08;;;;;;;3.07;2.87;;;26.40;93.20;;;;;;5134476;27;20440;-79
2021/06/05 12:44:37;;;;;;;2.40;2.30;;;26.40;93.00;;;;;;5134422;27;20473;-79
2021/06/05 12:47:05;;;;;;;4.53;4.13;;;26.40;93.00;;;;;;5134128;27;21022;-79
2021/06/05 12:49:35;;;;;;;3.10;2.90;;;26.40;92.80;;;;;;5134259;27;20445;-79
2021/06/05 12:52:06;;;;;;;2.57;2.47;;;26.40;93.50;;;;;;5133921;27;20477;-79
2021/06/05 12:54:35;;;;;;;2.67;2.37;;;26.40;92.90;;;;;;5133955;27;20966;-79
2021/06/05 12:57:24;;;;;;;2.60;2.50;;;26.40;92.80;;;;;;5134099;27;20882;-79
2021/06/05 12:59:51;;;;;;;2.60;2.50;;;26.50;92.90;;;;;;5134181;27;20472;-79